Time,TemperatureF,DewpointF,PressureIn,WindDirection,WindDirectionDegrees,WindSpeedMPH,WindSpeedGustMPH,Humidity,HourlyPrecipIn,Conditions,Clouds,dailyrainin,SoftwareType,DateUTC
2013-08-24 00:02:00,49.0,47.0,29.65,South,188,0.0,0.0,92,0.00,,,0.73,,2013-08-24 08:02:00,
2013-08-24 00:12:00,49.0,47.0,29.65,South,188,0.0,0.0,92,0.00,,,0.73,,2013-08-24 08:12:00,
2013-08-24 00:22:00,48.0,46.0,29.65,South,188,0.0,2.0,92,0.00,,,0.73,,2013-08-24 08:22:00,
2013-08-24 00:32:00,48.0,46.0,29.65,South,188,0.0,2.0,92,0.00,,,0.73,,2013-08-24 08:32:00,
2013-08-24 00:42:00,48.0,46.0,29.65,South,188,0.0,2.0,92,0.00,,,0.73,,2013-08-24 08:42:00,
2013-08-24 00:52:00,48.0,46.0,29.67,South,188,0.0,1.0,92,0.00,,,0.73,,2013-08-24 08:52:00,
2013-08-24 01:01:00,48.0,46.0,29.67,South,188,0.0,1.0,92,0.00,,,0.73,,2013-08-24 09:01:00,
2013-08-24 01:11:00,48.0,46.0,29.67,South,188,0.0,1.0,92,0.00,,,0.73,,2013-08-24 09:11:00,
2013-08-24 01:22:00,48.0,46.0,29.68,South,188,0.0,2.0,92,0.00,,,0.73,,2013-08-24 09:22:00,
2013-08-24 01:33:00,48.0,46.0,29.68,South,188,0.0,2.0,92,0.00,,,0.73,,2013-08-24 09:33:00,
2013-08-24 01:44:00,48.0,46.0,29.68,South,188,0.0,2.0,92,0.00,,,0.73,,2013-08-24 09:44:00,
2013-08-24 01:53:00,47.0,45.0,29.69,West,264,0.0,2.0,92,0.00,,,0.71,,2013-08-24 09:53:00,
2013-08-24 02:03:00,47.0,45.0,29.69,West,264,0.0,2.0,92,0.00,,,0.71,,2013-08-24 10:03:00,
2013-08-24 02:13:00,47.0,45.0,29.69,West,264,0.0,2.0,92,0.00,,,0.71,,2013-08-24 10:13:00,
2013-08-24 02:23:00,46.0,44.0,29.70,West,264,0.0,2.0,92,0.00,,,0.71,,2013-08-24 10:23:00,
2013-08-24 02:32:00,46.0,44.0,29.70,West,264,0.0,2.0,92,0.00,,,0.71,,2013-08-24 10:32:00,
2013-08-24 02:42:00,46.0,44.0,29.70,West,264,0.0,2.0,92,0.00,,,0.71,,2013-08-24 10:42:00,
2013-08-24 02:53:00,45.0,43.0,29.71,West,264,0.0,2.0,92,0.00,,,0.69,,2013-08-24 10:53:00,
2013-08-24 03:02:00,45.0,43.0,29.71,West,264,0.0,2.0,92,0.00,,,0.69,,2013-08-24 11:02:00,
2013-08-24 03:12:00,45.0,43.0,29.71,West,264,0.0,2.0,92,0.00,,,0.69,,2013-08-24 11:12:00,
2013-08-24 03:22:00,43.0,41.0,29.72,West,264,0.0,0.0,91,0.00,,,0.69,,2013-08-24 11:22:00,
2013-08-24 03:33:00,43.0,41.0,29.72,West,264,0.0,0.0,91,0.00,,,0.69,,2013-08-24 11:33:00,
2013-08-24 03:42:00,43.0,41.0,29.72,West,264,0.0,0.0,91,0.00,,,0.69,,2013-08-24 11:42:00,
2013-08-24 03:52:00,42.0,40.0,29.72,West,264,0.0,0.0,91,0.00,,,0.58,,2013-08-24 11:52:00,
2013-08-24 04:02:00,42.0,40.0,29.72,West,264,0.0,0.0,91,0.00,,,0.58,,2013-08-24 12:02:00,
2013-08-24 04:11:00,42.0,40.0,29.72,West,264,0.0,0.0,91,0.00,,,0.58,,2013-08-24 12:11:00,
2013-08-24 04:21:00,42.0,40.0,29.73,West,264,0.0,0.0,91,0.00,,,0.58,,2013-08-24 12:21:00,
2013-08-24 04:32:00,42.0,40.0,29.73,West,264,0.0,0.0,91,0.00,,,0.58,,2013-08-24 12:32:00,
2013-08-24 04:42:00,42.0,40.0,29.73,West,264,0.0,0.0,91,0.00,,,0.58,,2013-08-24 12:42:00,
2013-08-24 04:52:00,43.0,41.0,29.74,West,264,0.0,1.0,92,0.00,,,0.47,,2013-08-24 12:52:00,
2013-08-24 05:11:00,43.0,41.0,29.74,West,264,0.0,1.0,92,0.00,,,0.47,,2013-08-24 13:11:00,
2013-08-24 05:22:00,42.0,40.0,29.75,West,264,0.0,0.0,92,0.00,,,0.47,,2013-08-24 13:22:00,
2013-08-24 05:32:00,42.0,40.0,29.75,West,264,0.0,0.0,92,0.00,,,0.47,,2013-08-24 13:32:00,
2013-08-24 05:42:00,42.0,40.0,29.75,West,264,0.0,0.0,92,0.00,,,0.47,,2013-08-24 13:42:00,
2013-08-24 05:52:00,42.0,40.0,29.76,West,264,0.0,0.0,92,0.00,,,0.42,,2013-08-24 13:52:00,
2013-08-24 06:02:00,42.0,40.0,29.76,West,264,0.0,0.0,92,0.00,,,0.42,,2013-08-24 14:02:00,
2013-08-24 06:11:00,42.0,40.0,29.76,West,264,0.0,0.0,92,0.00,,,0.42,,2013-08-24 14:11:00,
2013-08-24 06:22:00,43.0,41.0,29.77,West,264,0.0,0.0,92,0.00,,,0.42,,2013-08-24 14:22:00,
2013-08-24 06:32:00,43.0,41.0,29.77,West,264,0.0,0.0,92,0.00,,,0.42,,2013-08-24 14:32:00,
2013-08-24 06:42:00,43.0,41.0,29.77,West,264,0.0,0.0,92,0.00,,,0.42,,2013-08-24 14:42:00,
2013-08-24 06:52:00,44.0,42.0,29.78,West,264,0.0,1.0,92,0.00,,,0.39,,2013-08-24 14:52:00,
2013-08-24 07:01:00,44.0,42.0,29.78,West,264,0.0,1.0,92,0.00,,,0.39,,2013-08-24 15:01:00,
2013-08-24 07:11:00,44.0,42.0,29.78,West,264,0.0,1.0,92,0.00,,,0.39,,2013-08-24 15:11:00,
2013-08-24 07:21:00,44.0,42.0,29.78,West,264,0.0,1.0,92,0.00,,,0.39,,2013-08-24 15:21:00,
2013-08-24 07:34:00,44.0,42.0,29.78,West,264,0.0,1.0,92,0.00,,,0.39,,2013-08-24 15:34:00,
2013-08-24 07:45:00,44.0,42.0,29.78,West,264,0.0,1.0,92,0.00,,,0.39,,2013-08-24 15:45:00,
2013-08-24 07:54:00,44.0,42.0,29.79,West,264,0.0,1.0,92,0.00,,,0.34,,2013-08-24 15:54:00,
2013-08-24 08:04:00,44.0,42.0,29.79,West,264,0.0,1.0,92,0.00,,,0.34,,2013-08-24 16:04:00,
2013-08-24 08:13:00,44.0,42.0,29.79,West,264,0.0,1.0,92,0.00,,,0.34,,2013-08-24 16:13:00,
2013-08-24 08:23:00,45.0,43.0,29.81,West,264,0.0,0.0,92,0.00,,,0.34,,2013-08-24 16:23:00,
2013-08-24 08:33:00,45.0,43.0,29.81,West,264,0.0,0.0,92,0.00,,,0.34,,2013-08-24 16:33:00,
2013-08-24 08:42:00,45.0,43.0,29.81,West,264,0.0,0.0,92,0.00,,,0.34,,2013-08-24 16:42:00,
2013-08-24 08:53:00,45.0,43.0,29.82,West,264,0.0,0.0,91,0.00,,,0.30,,2013-08-24 16:53:00,
2013-08-24 09:02:00,45.0,43.0,29.82,West,264,0.0,0.0,91,0.00,,,0.30,,2013-08-24 17:02:00,
2013-08-24 09:12:00,45.0,43.0,29.82,West,264,0.0,0.0,91,0.00,,,0.30,,2013-08-24 17:12:00,
2013-08-24 09:23:00,46.0,44.0,29.83,West,264,0.0,0.0,91,0.00,,,0.30,,2013-08-24 17:23:00,
2013-08-24 09:34:00,46.0,44.0,29.83,West,264,0.0,0.0,91,0.00,,,0.30,,2013-08-24 17:34:00,
2013-08-24 09:42:00,46.0,44.0,29.83,West,264,0.0,0.0,91,0.00,,,0.30,,2013-08-24 17:42:00,
2013-08-24 09:52:00,46.0,42.0,29.83,West,264,0.0,1.0,87,0.00,,,0.25,,2013-08-24 17:52:00,
2013-08-24 10:02:00,46.0,42.0,29.83,West,264,0.0,1.0,87,0.00,,,0.25,,2013-08-24 18:02:00,
2013-08-24 10:13:00,46.0,42.0,29.83,West,264,0.0,1.0,87,0.00,,,0.25,,2013-08-24 18:13:00,
2013-08-24 10:22:00,47.0,44.0,29.83,West,264,0.0,0.0,88,0.00,,,0.25,,2013-08-24 18:22:00,
2013-08-24 10:32:00,47.0,44.0,29.83,West,264,0.0,0.0,88,0.00,,,0.25,,2013-08-24 18:32:00,
2013-08-24 10:42:00,47.0,44.0,29.83,West,264,0.0,0.0,88,0.00,,,0.25,,2013-08-24 18:42:00,
2013-08-24 10:53:00,48.0,42.0,29.83,SSW,201,0.0,3.0,79,0.00,,,0.20,,2013-08-24 18:53:00,
2013-08-24 11:01:00,48.0,42.0,29.83,SSW,201,0.0,3.0,79,0.00,,,0.20,,2013-08-24 19:01:00,
2013-08-24 11:12:00,48.0,42.0,29.83,SSW,201,0.0,3.0,79,0.00,,,0.20,,2013-08-24 19:12:00,
2013-08-24 11:21:00,51.0,41.0,29.84,WSW,249,0.0,3.0,69,0.00,,,0.20,,2013-08-24 19:21:00,
2013-08-24 11:32:00,51.0,41.0,29.84,WSW,249,0.0,3.0,69,0.00,,,0.20,,2013-08-24 19:32:00,
2013-08-24 11:42:00,51.0,41.0,29.84,WSW,249,0.0,3.0,69,0.00,,,0.20,,2013-08-24 19:42:00,
2013-08-24 11:52:00,52.0,41.0,29.84,West,274,0.0,3.0,66,0.00,,,0.18,,2013-08-24 19:52:00,
2013-08-24 12:02:00,52.0,41.0,29.84,West,274,0.0,3.0,66,0.00,,,0.18,,2013-08-24 20:02:00,
2013-08-24 12:11:00,52.0,41.0,29.84,West,274,0.0,3.0,66,0.00,,,0.18,,2013-08-24 20:11:00,
2013-08-24 12:22:00,54.0,37.0,29.84,SW,226,1.0,3.0,53,0.00,,,0.18,,2013-08-24 20:22:00,
2013-08-24 12:32:00,54.0,37.0,29.84,SW,226,1.0,3.0,53,0.00,,,0.18,,2013-08-24 20:32:00,
2013-08-24 12:42:00,54.0,37.0,29.84,SW,226,1.0,3.0,53,0.00,,,0.18,,2013-08-24 20:42:00,
2013-08-24 12:52:00,56.0,39.0,29.84,North,10,1.0,2.0,52,0.00,,,0.16,,2013-08-24 20:52:00,
2013-08-24 13:02:00,56.0,39.0,29.84,North,10,1.0,2.0,52,0.00,,,0.16,,2013-08-24 21:02:00,
2013-08-24 13:11:00,56.0,39.0,29.84,North,10,1.0,2.0,52,0.00,,,0.16,,2013-08-24 21:11:00,
2013-08-24 13:22:00,58.0,39.0,29.84,WSW,242,0.0,4.0,50,0.00,,,0.16,,2013-08-24 21:22:00,
2013-08-24 13:34:00,58.0,39.0,29.84,WSW,242,0.0,4.0,50,0.00,,,0.16,,2013-08-24 21:34:00,
2013-08-24 13:43:00,58.0,39.0,29.84,WSW,242,0.0,4.0,50,0.00,,,0.16,,2013-08-24 21:43:00,
2013-08-24 13:54:00,58.0,39.0,29.85,SW,235,0.0,2.0,50,0.00,,,0.15,,2013-08-24 21:54:00,
2013-08-24 14:04:00,58.0,39.0,29.85,SW,235,0.0,2.0,50,0.00,,,0.15,,2013-08-24 22:04:00,
2013-08-24 14:14:00,58.0,39.0,29.85,SW,235,0.0,2.0,50,0.00,,,0.15,,2013-08-24 22:14:00,
2013-08-24 14:23:00,57.0,41.0,29.84,SW,217,0.0,2.0,54,0.00,,,0.15,,2013-08-24 22:23:00,
2013-08-24 14:33:00,57.0,41.0,29.84,SW,217,0.0,2.0,54,0.00,,,0.15,,2013-08-24 22:33:00,
2013-08-24 14:42:00,57.0,41.0,29.84,SW,217,0.0,2.0,54,0.00,,,0.15,,2013-08-24 22:42:00,
2013-08-24 14:53:00,60.0,39.0,29.85,NNE,19,0.0,3.0,45,0.00,,,0.07,,2013-08-24 22:53:00,
2013-08-24 15:03:00,60.0,39.0,29.85,NNE,19,0.0,3.0,45,0.00,,,0.07,,2013-08-24 23:03:00,
2013-08-24 15:12:00,60.0,39.0,29.85,NNE,19,0.0,3.0,45,0.00,,,0.07,,2013-08-24 23:12:00,
2013-08-24 15:22:00,60.0,39.0,29.84,WNW,294,0.0,4.0,46,0.00,,,0.07,,2013-08-24 23:22:00,
2013-08-24 15:34:00,60.0,39.0,29.84,WNW,294,0.0,4.0,46,0.00,,,0.07,,2013-08-24 23:34:00,
2013-08-24 15:42:00,60.0,39.0,29.84,WNW,294,0.0,4.0,46,0.00,,,0.07,,2013-08-24 23:42:00,
2013-08-24 15:53:00,60.0,39.0,29.84,WNW,300,1.0,5.0,46,0.00,,,0.06,,2013-08-24 23:53:00,
2013-08-24 16:02:00,60.0,39.0,29.84,WNW,300,1.0,5.0,46,0.00,,,0.06,,2013-08-25 00:02:00,
2013-08-24 16:11:00,60.0,39.0,29.84,WNW,300,1.0,5.0,46,0.00,,,0.06,,2013-08-25 00:11:00,
2013-08-24 16:22:00,60.0,41.0,29.84,NW,321,1.0,3.0,49,0.00,,,0.06,,2013-08-25 00:22:00,
2013-08-24 16:32:00,60.0,41.0,29.84,NW,321,1.0,3.0,49,0.00,,,0.06,,2013-08-25 00:32:00,
2013-08-24 16:42:00,60.0,41.0,29.84,NW,321,1.0,3.0,49,0.00,,,0.06,,2013-08-25 00:42:00,
2013-08-24 16:52:00,60.0,40.0,29.84,NW,311,0.0,5.0,48,0.00,,,0.03,,2013-08-25 00:52:00,
2013-08-24 17:01:00,60.0,40.0,29.84,NW,311,0.0,5.0,48,0.00,,,0.03,,2013-08-25 01:01:00,
2013-08-24 17:11:00,60.0,40.0,29.84,NW,311,0.0,5.0,48,0.00,,,0.03,,2013-08-25 01:11:00,
2013-08-24 17:22:00,60.0,36.0,29.84,WSW,252,0.0,4.0,41,0.00,,,0.03,,2013-08-25 01:22:00,
2013-08-24 17:32:00,60.0,36.0,29.84,WSW,252,0.0,4.0,41,0.00,,,0.03,,2013-08-25 01:32:00,
2013-08-24 17:42:00,60.0,36.0,29.84,WSW,252,0.0,4.0,41,0.00,,,0.03,,2013-08-25 01:42:00,
2013-08-24 18:22:00,59.0,38.0,29.84,WSW,254,0.0,2.0,46,0.00,,,0.03,,2013-08-25 02:22:00,
2013-08-24 18:33:00,59.0,38.0,29.84,WSW,254,0.0,2.0,46,0.00,,,0.03,,2013-08-25 02:33:00,
2013-08-24 18:42:00,59.0,38.0,29.84,WSW,254,0.0,2.0,46,0.00,,,0.03,,2013-08-25 02:42:00,
2013-08-24 19:23:00,58.0,40.0,29.85,South,176,0.0,2.0,51,0.00,,,0.00,,2013-08-25 03:23:00,
2013-08-24 19:34:00,58.0,40.0,29.85,South,176,0.0,2.0,51,0.00,,,0.00,,2013-08-25 03:34:00,
2013-08-24 19:44:00,58.0,40.0,29.85,South,176,0.0,2.0,51,0.00,,,0.00,,2013-08-25 03:44:00,
2013-08-24 19:54:00,57.0,41.0,29.85,SW,230,0.0,1.0,55,0.00,,,0.00,,2013-08-25 03:54:00,
2013-08-24 20:02:00,-999.0,-99.9,29.85,SW,230,0.0,1.0,-999,-99.99,,,-99.99,,2013-08-25 04:02:00,
2013-08-24 20:14:00,57.0,41.0,29.85,SW,230,0.0,1.0,55,0.00,,,0.00,,2013-08-25 04:14:00,
2013-08-24 20:25:00,56.0,41.0,29.86,SW,221,0.0,1.0,57,0.00,,,0.00,,2013-08-25 04:25:00,
2013-08-24 20:33:00,56.0,41.0,29.86,SW,221,0.0,1.0,57,0.00,,,0.00,,2013-08-25 04:33:00,
2013-08-24 20:43:00,56.0,41.0,29.86,SW,221,0.0,1.0,57,0.00,,,0.00,,2013-08-25 04:43:00,
2013-08-24 20:54:00,55.0,40.0,29.86,SW,215,0.0,1.0,56,0.00,,,0.00,,2013-08-25 04:54:00,
2013-08-24 21:03:00,55.0,40.0,29.86,SW,215,0.0,1.0,56,0.00,,,0.00,,2013-08-25 05:03:00,
2013-08-24 21:12:00,55.0,40.0,29.86,SW,215,0.0,1.0,56,0.00,,,0.00,,2013-08-25 05:12:00,
2013-08-24 21:52:00,51.0,41.0,29.87,SW,216,0.0,1.0,69,0.00,,,0.00,,2013-08-25 05:52:00,
2013-08-24 22:03:00,51.0,41.0,29.87,SW,216,0.0,1.0,69,0.00,,,0.00,,2013-08-25 06:03:00,
2013-08-24 22:12:00,51.0,41.0,29.87,SW,216,0.0,1.0,69,0.00,,,0.00,,2013-08-25 06:12:00,
2013-08-24 22:21:00,49.0,41.0,29.88,SW,216,0.0,0.0,75,0.00,,,0.00,,2013-08-25 06:21:00,
2013-08-24 22:32:00,49.0,41.0,29.88,SW,216,0.0,0.0,75,0.00,,,0.00,,2013-08-25 06:32:00,
2013-08-24 22:43:00,49.0,41.0,29.88,SW,216,0.0,0.0,75,0.00,,,0.00,,2013-08-25 06:43:00,
2013-08-24 22:52:00,47.0,41.0,29.88,SW,216,0.0,0.0,78,0.00,,,0.00,,2013-08-25 06:52:00,
2013-08-24 23:01:00,47.0,41.0,29.88,SW,216,0.0,0.0,78,0.00,,,0.00,,2013-08-25 07:01:00,
2013-08-24 23:12:00,47.0,41.0,29.88,SW,216,0.0,0.0,78,0.00,,,0.00,,2013-08-25 07:12:00,
2013-08-24 23:22:00,46.0,40.0,29.90,SW,216,0.0,0.0,79,0.00,,,0.00,,2013-08-25 07:22:00,
2013-08-24 23:32:00,46.0,40.0,29.90,SW,216,0.0,0.0,79,0.00,,,0.00,,2013-08-25 07:32:00,
2013-08-24 23:42:00,46.0,40.0,29.90,SW,216,0.0,0.0,79,0.00,,,0.00,,2013-08-25 07:42:00,
2013-08-24 23:52:00,45.0,38.0,29.90,SW,216,0.0,1.0,76,0.00,,,0.00,,2013-08-25 07:52:00,